createdAt,value
2022-10-05T00:00:23.234Z,10.48
2022-10-05T00:02:53.276Z,12.43
2022-10-05T00:05:26.284Z,10.70
2022-10-05T00:07:57.536Z,10.77
2022-10-05T00:10:25.723Z,12.55
2022-10-05T00:12:53.377Z,14.05
2022-10-05T00:15:23.980Z,14.57
2022-10-05T00:17:51.663Z,14.63
2022-10-05T00:20:22.815Z,16.83
2022-10-05T00:22:52.831Z,13.50
2022-10-05T00:25:22.864Z,12.98
2022-10-05T00:27:56.166Z,15.30
2022-10-05T00:30:27.630Z,16.58
2022-10-05T00:32:59.497Z,14.82
2022-10-05T00:35:29.241Z,15.02
2022-10-05T00:37:57.355Z,13.32
2022-10-05T00:40:37.641Z,13.13
2022-10-05T00:43:31.206Z,15.05
2022-10-05T00:46:07.837Z,16.20
2022-10-05T00:48:45.606Z,17.73
2022-10-05T00:51:23.191Z,15.82
2022-10-05T00:54:02.871Z,14.13
2022-10-05T00:56:45.175Z,12.77
2022-10-05T00:59:23.010Z,15.07
2022-10-05T01:01:58.682Z,15.80
2022-10-05T01:04:33.178Z,12.93
2022-10-05T01:09:48.518Z,13.90
2022-10-05T01:12:24.509Z,15.38
2022-10-05T01:15:01.373Z,12.63
2022-10-05T01:17:39.905Z,14.18
2022-10-05T01:20:35.314Z,15.23
2022-10-05T01:23:41.695Z,16.40
2022-10-05T01:26:28.944Z,14.75
2022-10-05T01:29:03.200Z,14.40
2022-10-05T01:31:38.548Z,13.88
2022-10-05T01:34:14.255Z,12.73
2022-10-05T01:36:53.321Z,14.43
2022-10-05T01:39:30.562Z,14.50
2022-10-05T01:42:04.698Z,14.85
2022-10-05T01:44:41.465Z,17.48
2022-10-05T01:47:15.981Z,15.45
2022-10-05T01:52:29.446Z,12.95
2022-10-05T01:55:10.858Z,14.82
2022-10-05T01:57:51.442Z,13.85
2022-10-05T02:00:21.266Z,12.75
2022-10-05T02:02:53.457Z,15.77
2022-10-05T02:05:25.359Z,14.70
2022-10-05T02:07:59.649Z,15.65
2022-10-05T02:10:30.006Z,14.27
2022-10-05T02:13:02.423Z,16.27
2022-10-05T02:15:41.530Z,16.60
2022-10-05T02:18:13.565Z,14.75
2022-10-05T02:20:43.874Z,17.48
2022-10-05T02:23:15.456Z,14.20
2022-10-05T02:25:46.612Z,17.98
2022-10-05T02:28:20.238Z,16.55
2022-10-05T02:30:54.938Z,15.13
2022-10-05T02:35:57.130Z,17.20
2022-10-05T02:38:30.594Z,15.07
2022-10-05T02:41:08.963Z,16.27
2022-10-05T02:43:49.656Z,18.15
2022-10-05T02:46:31.296Z,15.93
2022-10-05T02:49:09.562Z,18.30
2022-10-05T02:51:46.039Z,15.73
2022-10-05T02:54:32.069Z,18.63
2022-10-05T02:57:05.814Z,14.82
2022-10-05T02:59:40.056Z,14.70
2022-10-05T03:02:19.739Z,14.77
2022-10-05T03:05:00.005Z,14.05
2022-10-05T03:07:33.363Z,13.38
2022-10-05T03:10:10.330Z,16.90
2022-10-05T03:12:48.601Z,16.98
2022-10-05T03:15:31.554Z,17.60
2022-10-05T03:18:12.225Z,18.20
2022-10-05T03:20:48.436Z,17.45
2022-10-05T03:23:25.312Z,14.40
2022-10-05T03:26:07.448Z,16.75
2022-10-05T03:28:43.779Z,14.25
2022-10-05T03:31:23.004Z,14.85
2022-10-05T03:33:58.009Z,17.05
2022-10-05T03:36:31.415Z,14.63
2022-10-05T03:39:10.482Z,12.75
2022-10-05T03:41:46.431Z,15.23
2022-10-05T03:44:35.482Z,19.98
2022-10-05T03:47:12.561Z,16.52
2022-10-05T03:49:56.214Z,13.93
2022-10-05T03:52:28.551Z,15.90
2022-10-05T03:55:02.439Z,14.02
2022-10-05T03:57:34.613Z,13.68
2022-10-05T04:00:07.094Z,14.30
2022-10-05T04:02:55.460Z,14.60
2022-10-05T04:05:28.164Z,18.20
2022-10-05T04:08:01.300Z,13.43
2022-10-05T04:10:34.337Z,12.85
2022-10-05T04:13:07.821Z,23.52
2022-10-05T04:15:42.658Z,16.07
2022-10-05T04:18:21.213Z,14.20
2022-10-05T04:20:53.548Z,16.38
2022-10-05T04:23:28.974Z,19.15
2022-10-05T04:26:03.338Z,12.95
2022-10-05T04:28:42.185Z,13.95
2022-10-05T04:31:14.658Z,15.38
2022-10-05T04:33:49.243Z,18.42
2022-10-05T04:36:27.620Z,15.82
2022-10-05T04:39:09.466Z,15.18
2022-10-05T04:41:49.421Z,15.20
2022-10-05T04:44:45.912Z,16.58
2022-10-05T04:47:30.418Z,9.35
2022-10-05T04:50:16.940Z,9.60
2022-10-05T04:53:10.207Z,11.20
2022-10-05T04:55:50.665Z,9.18
2022-10-05T04:58:30.339Z,12.85
2022-10-05T05:01:09.251Z,9.90
2022-10-05T05:03:54.589Z,10.98
2022-10-05T05:06:34.907Z,10.90
2022-10-05T05:09:20.903Z,10.90
2022-10-05T05:12:03.773Z,8.55
2022-10-05T05:14:47.691Z,11.48
2022-10-05T05:17:28.443Z,9.57
2022-10-05T05:20:06.524Z,12.50
2022-10-05T05:22:43.417Z,11.75
2022-10-05T05:25:23.095Z,12.63
2022-10-05T05:27:55.839Z,12.63
2022-10-05T05:30:31.293Z,10.07
2022-10-05T05:33:07.489Z,19.35
2022-10-05T05:36:05.877Z,10.98
2022-10-05T05:38:40.899Z,16.70
2022-10-05T05:41:14.084Z,11.57
2022-10-05T05:44:06.847Z,10.32
2022-10-05T05:47:02.166Z,11.40
2022-10-05T05:49:42.722Z,10.15
2022-10-05T05:52:18.831Z,13.65
2022-10-05T05:54:52.863Z,11.00
2022-10-05T05:57:27.420Z,12.75
2022-10-05T06:00:05.505Z,13.27
2022-10-05T06:02:47.216Z,11.40
2022-10-05T06:05:31.269Z,13.38
2022-10-05T06:08:13.267Z,12.20
2022-10-05T06:10:48.821Z,12.60
2022-10-05T06:13:23.485Z,10.70
2022-10-05T06:15:55.854Z,14.48
2022-10-05T06:18:24.907Z,21.77
2022-10-05T06:21:00.934Z,20.77
2022-10-05T06:23:35.550Z,19.35
2022-10-05T06:26:21.187Z,18.17
2022-10-05T06:31:35.833Z,12.18
2022-10-05T06:34:19.602Z,12.05
2022-10-05T06:36:51.996Z,13.68
2022-10-05T06:39:46.144Z,11.93
2022-10-05T06:42:43.574Z,12.77
2022-10-05T06:45:31.114Z,11.57
2022-10-05T06:48:31.703Z,10.07
2022-10-05T06:51:30.787Z,10.68
2022-10-05T06:54:22.204Z,11.32
2022-10-05T06:56:56.966Z,11.25
2022-10-05T06:59:29.441Z,13.93
2022-10-05T07:02:07.373Z,15.40
2022-10-05T07:04:50.883Z,11.02
2022-10-05T07:07:26.143Z,11.67
2022-10-05T07:10:05.698Z,18.15
2022-10-05T07:12:57.770Z,14.98
2022-10-05T07:15:41.400Z,12.45
2022-10-05T07:18:29.517Z,9.95
2022-10-05T07:21:05.251Z,11.32
2022-10-05T07:23:46.256Z,14.73
2022-10-05T07:26:21.701Z,15.20
2022-10-05T07:28:56.816Z,10.15
2022-10-05T07:31:34.088Z,11.32
2022-10-05T07:34:10.455Z,10.27
2022-10-05T07:37:02.982Z,8.70
2022-10-05T07:39:59.029Z,8.43
2022-10-05T07:42:36.370Z,12.90
2022-10-05T07:45:15.871Z,11.57
2022-10-05T07:47:52.573Z,10.38
2022-10-05T07:50:27.472Z,9.57
2022-10-05T07:52:58.861Z,10.85
2022-10-05T07:55:31.297Z,9.50
2022-10-05T07:58:13.029Z,12.05
2022-10-05T08:00:50.564Z,10.55
2022-10-05T08:03:29.607Z,11.73
2022-10-05T08:05:59.585Z,9.93
2022-10-05T08:08:36.752Z,11.98
2022-10-05T08:11:14.446Z,9.00
2022-10-05T08:13:51.334Z,10.40
2022-10-05T08:16:19.931Z,11.20
2022-10-05T08:18:56.645Z,11.30
2022-10-05T08:21:34.859Z,12.45
2022-10-05T08:24:12.048Z,8.88
2022-10-05T08:26:51.200Z,10.80
2022-10-05T08:29:27.091Z,12.80
2022-10-05T08:31:59.539Z,8.93
2022-10-05T08:34:33.706Z,8.90
2022-10-05T08:37:05.584Z,12.38
2022-10-05T08:39:40.074Z,9.98
2022-10-05T08:42:38.118Z,11.70
2022-10-05T08:45:47.313Z,9.63
2022-10-05T08:48:43.627Z,10.57
2022-10-05T08:51:51.308Z,10.82
2022-10-05T08:54:38.983Z,13.23
2022-10-05T08:57:34.764Z,9.75
2022-10-05T09:00:12.284Z,8.95
2022-10-05T09:03:08.658Z,7.70
2022-10-05T09:05:58.951Z,10.10
2022-10-05T09:08:44.624Z,9.35
2022-10-05T09:11:20.683Z,9.38
2022-10-05T09:14:27.620Z,10.25
2022-10-05T09:17:11.960Z,11.15
2022-10-05T09:19:54.196Z,9.10
2022-10-05T09:22:39.549Z,9.73
2022-10-05T09:25:22.080Z,9.77
2022-10-05T09:27:57.034Z,8.55
2022-10-05T09:30:34.714Z,8.82
2022-10-05T09:33:47.421Z,9.55
2022-10-05T09:36:50.200Z,8.30
2022-10-05T09:39:47.946Z,9.45
2022-10-05T09:42:38.894Z,8.27
2022-10-05T09:45:53.276Z,11.07
2022-10-05T09:48:57.363Z,11.30
2022-10-05T09:51:58.654Z,8.00
2022-10-05T09:55:01.222Z,8.70
2022-10-05T09:58:07.970Z,6.63
2022-10-05T10:01:08.932Z,7.30
2022-10-05T10:04:12.760Z,7.13
2022-10-05T10:07:14.030Z,8.40
2022-10-05T10:09:54.065Z,7.30
2022-10-05T10:12:33.109Z,6.95
2022-10-05T10:15:29.535Z,6.47
2022-10-05T10:18:14.860Z,6.22
2022-10-05T10:21:04.003Z,7.13
2022-10-05T10:24:03.573Z,7.25
2022-10-05T10:26:58.689Z,8.90
2022-10-05T10:30:10.201Z,9.52
2022-10-05T10:33:22.768Z,5.05
2022-10-05T10:35:56.465Z,5.30
2022-10-05T10:41:29.855Z,4.88
2022-10-05T10:44:25.060Z,5.20
2022-10-05T10:47:14.427Z,4.85
2022-10-05T10:50:05.028Z,4.90
2022-10-05T10:52:48.996Z,3.72
2022-10-05T10:58:27.387Z,6.72
2022-10-05T11:01:05.245Z,6.57
2022-10-05T11:04:03.698Z,4.30
2022-10-05T11:06:48.542Z,5.80
2022-10-05T11:09:32.508Z,4.75
2022-10-05T11:12:55.067Z,6.07
2022-10-05T11:15:49.488Z,6.15
2022-10-05T11:18:21.696Z,3.63
2022-10-05T11:21:18.453Z,3.42
2022-10-05T11:24:38.793Z,4.28
2022-10-05T11:30:21.233Z,12.63
2022-10-05T11:33:30.302Z,4.45
2022-10-05T11:36:10.803Z,3.72
2022-10-05T11:38:57.865Z,4.65
2022-10-05T11:42:00.910Z,6.15
2022-10-05T11:45:06.134Z,3.28
2022-10-05T11:47:52.636Z,3.78
2022-10-05T11:50:24.114Z,4.20
2022-10-05T11:52:58.010Z,4.05
2022-10-05T11:55:30.996Z,2.97
2022-10-05T11:58:01.555Z,4.65
2022-10-05T12:00:34.765Z,8.88
2022-10-05T12:03:33.284Z,3.28
2022-10-05T12:06:22.350Z,2.70
2022-10-05T12:09:04.702Z,3.92
2022-10-05T12:11:57.653Z,4.60
2022-10-05T12:14:37.188Z,3.63
2022-10-05T12:17:13.634Z,3.65
2022-10-05T12:19:46.834Z,6.20
2022-10-05T12:22:19.329Z,3.80
2022-10-05T12:25:06.230Z,4.00
2022-10-05T12:27:39.029Z,4.40
2022-10-05T12:30:16.010Z,6.20
2022-10-05T12:33:01.703Z,5.43
2022-10-05T12:35:47.780Z,4.93
2022-10-05T12:38:24.886Z,4.40
2022-10-05T12:40:59.823Z,5.70
2022-10-05T12:43:35.021Z,4.18
2022-10-05T12:46:17.634Z,4.07
2022-10-05T12:48:58.715Z,5.47
2022-10-05T12:51:37.842Z,3.65
2022-10-05T12:54:17.847Z,5.35
2022-10-05T12:56:53.628Z,5.38
2022-10-05T12:59:34.761Z,4.45
2022-10-05T13:02:16.379Z,4.18
2022-10-05T13:04:52.111Z,5.05
2022-10-05T13:07:36.353Z,3.95
2022-10-05T13:10:16.804Z,2.92
2022-10-05T13:13:01.093Z,4.60
2022-10-05T13:15:32.908Z,4.63
2022-10-05T13:18:12.018Z,4.25
2022-10-05T13:20:45.665Z,4.70
2022-10-05T13:25:55.103Z,3.92
2022-10-05T13:28:27.909Z,2.60
2022-10-05T13:31:03.783Z,5.50
2022-10-05T13:33:55.447Z,3.38
2022-10-05T13:36:33.886Z,3.25
2022-10-05T13:39:11.670Z,5.35
2022-10-05T13:41:51.150Z,3.60
2022-10-05T13:44:27.493Z,2.60
2022-10-05T13:47:02.479Z,6.13
2022-10-05T13:49:39.516Z,4.43
2022-10-05T13:52:20.902Z,3.50
2022-10-05T13:54:57.590Z,3.30
2022-10-05T13:57:44.990Z,4.70
2022-10-05T14:00:22.700Z,4.10
2022-10-05T14:02:56.388Z,4.45
2022-10-05T14:05:26.797Z,2.60
2022-10-05T14:07:56.873Z,3.28
2022-10-05T14:10:38.510Z,3.97
2022-10-05T14:13:21.914Z,6.47
2022-10-05T14:16:19.136Z,4.15
2022-10-05T14:18:59.444Z,4.50
2022-10-05T14:21:30.164Z,4.70
2022-10-05T14:24:42.368Z,6.70
2022-10-05T14:27:22.929Z,3.65
2022-10-05T14:29:59.802Z,4.03
2022-10-05T14:32:31.774Z,2.47
2022-10-05T14:35:14.732Z,6.78
2022-10-05T14:37:50.361Z,3.67
2022-10-05T14:40:30.571Z,2.97
2022-10-05T14:43:02.784Z,4.18
2022-10-05T14:45:31.034Z,3.90
2022-10-05T14:48:11.517Z,4.93
2022-10-05T14:50:54.852Z,2.83
2022-10-05T14:53:24.918Z,2.50
2022-10-05T14:56:05.191Z,5.35
2022-10-05T14:58:49.979Z,2.97
2022-10-05T15:01:27.265Z,2.88
2022-10-05T15:04:06.872Z,4.63
2022-10-05T15:06:38.981Z,4.18
2022-10-05T15:09:24.698Z,3.63
2022-10-05T15:11:54.518Z,3.55
2022-10-05T15:14:28.143Z,2.65
2022-10-05T15:17:01.706Z,4.22
2022-10-05T15:19:37.968Z,3.50
2022-10-05T15:22:19.719Z,3.47
2022-10-05T15:25:01.589Z,3.13
2022-10-05T15:27:36.400Z,3.67
2022-10-05T15:30:12.353Z,4.82
2022-10-05T15:32:55.360Z,6.93
2022-10-05T15:35:43.004Z,4.55
2022-10-05T15:38:21.132Z,5.28
2022-10-05T15:41:10.906Z,4.13
2022-10-05T15:43:48.322Z,11.38
2022-10-05T15:46:23.433Z,6.00
2022-10-05T15:49:01.738Z,4.07
2022-10-05T15:51:42.472Z,2.80
2022-10-05T15:54:39.976Z,5.63
2022-10-05T15:57:17.212Z,5.82
2022-10-05T15:59:57.468Z,4.53
2022-10-05T16:02:34.414Z,7.93
2022-10-05T16:05:13.345Z,4.57
2022-10-05T16:08:06.703Z,5.20
2022-10-05T16:10:38.045Z,6.22
2022-10-05T16:13:19.233Z,6.70
2022-10-05T16:15:51.094Z,4.93
2022-10-05T16:18:42.363Z,5.68
2022-10-05T16:21:22.520Z,4.70
2022-10-05T16:24:03.721Z,3.83
2022-10-05T16:26:41.008Z,3.75
2022-10-05T16:29:16.133Z,7.63
2022-10-05T16:31:56.326Z,7.25
2022-10-05T16:34:42.604Z,3.97
2022-10-05T16:37:18.278Z,7.78
2022-10-05T16:39:55.958Z,5.22
2022-10-05T16:42:43.096Z,4.68
2022-10-05T16:45:28.134Z,5.40
2022-10-05T16:48:04.231Z,8.38
2022-10-05T16:50:44.290Z,3.92
2022-10-05T16:53:18.776Z,7.13
2022-10-05T16:55:49.767Z,5.32
2022-10-05T16:58:23.784Z,5.65
2022-10-05T17:01:11.618Z,4.18
2022-10-05T17:03:52.992Z,4.05
2022-10-05T17:06:40.108Z,2.85
2022-10-05T17:09:37.985Z,4.00
2022-10-05T17:12:26.754Z,6.30
2022-10-05T17:15:10.169Z,5.68
2022-10-05T17:18:07.661Z,5.60
2022-10-05T17:20:47.940Z,5.88
2022-10-05T17:23:37.828Z,6.50
2022-10-05T17:26:33.293Z,4.20
2022-10-05T17:29:10.444Z,4.50
2022-10-05T17:32:16.810Z,6.05
2022-10-05T17:35:18.429Z,3.10
2022-10-05T17:38:09.203Z,3.42
2022-10-05T17:40:39.898Z,6.25
2022-10-05T17:43:24.966Z,3.92
2022-10-05T17:46:00.565Z,4.78
2022-10-05T17:49:06.629Z,6.32
2022-10-05T17:52:23.397Z,4.75
2022-10-05T17:55:20.439Z,3.95
2022-10-05T17:57:49.561Z,3.30
2022-10-05T18:00:41.967Z,4.40
2022-10-05T18:03:37.238Z,7.13
2022-10-05T18:06:35.355Z,3.88
2022-10-05T18:09:33.145Z,3.45
2022-10-05T18:12:39.565Z,4.30
2022-10-05T18:15:46.537Z,3.00
2022-10-05T18:18:59.156Z,3.28
2022-10-05T18:21:38.436Z,3.75
2022-10-05T18:24:44.721Z,3.85
2022-10-05T18:27:36.151Z,2.58
2022-10-05T18:30:14.465Z,2.15
2022-10-05T18:33:20.044Z,4.85
2022-10-05T18:36:00.229Z,2.00
2022-10-05T18:38:41.389Z,3.65
2022-10-05T18:41:19.736Z,3.42
2022-10-05T18:43:57.472Z,3.70
2022-10-05T18:46:39.895Z,3.80
2022-10-05T18:49:26.455Z,3.85
2022-10-05T18:52:05.862Z,2.17
2022-10-05T18:54:48.414Z,4.82
2022-10-05T18:57:48.616Z,8.23
2022-10-05T19:00:19.193Z,2.53
2022-10-05T19:02:51.462Z,10.65
2022-10-05T19:05:48.710Z,4.43
2022-10-05T19:08:28.792Z,3.55
2022-10-05T19:11:05.645Z,3.13
2022-10-05T19:13:42.426Z,3.30
2022-10-05T19:16:25.240Z,5.63
2022-10-05T19:19:10.633Z,7.50
2022-10-05T19:21:47.070Z,7.20
2022-10-05T19:24:40.595Z,7.25
2022-10-05T19:27:17.558Z,10.35
2022-10-05T19:30:17.943Z,5.90
2022-10-05T19:33:07.111Z,7.72
2022-10-05T19:35:44.848Z,6.47
2022-10-05T19:38:22.612Z,9.60
2022-10-05T19:40:57.775Z,6.38
2022-10-05T19:43:39.549Z,7.97
2022-10-05T19:46:19.095Z,6.20
2022-10-05T19:48:50.653Z,5.22
2022-10-05T19:51:29.550Z,6.70
2022-10-05T19:54:00.933Z,5.88
2022-10-05T19:56:32.372Z,4.40
2022-10-05T19:59:13.052Z,6.25
2022-10-05T20:01:42.009Z,7.68
2022-10-05T20:04:10.949Z,3.78
2022-10-05T20:06:39.558Z,7.97
2022-10-05T20:09:21.030Z,6.65
2022-10-05T20:11:52.725Z,9.02
2022-10-05T20:14:32.748Z,7.63
2022-10-05T20:17:50.006Z,6.07
2022-10-05T20:20:31.216Z,7.55
2022-10-05T20:23:23.455Z,7.45
2022-10-05T20:26:05.671Z,9.45
2022-10-05T20:28:33.891Z,7.95
2022-10-05T20:31:03.000Z,7.53
2022-10-05T20:33:30.951Z,7.80
2022-10-05T20:35:58.964Z,5.65
2022-10-05T20:38:27.108Z,7.40
2022-10-05T20:40:55.109Z,6.95
2022-10-05T20:43:22.793Z,8.90
2022-10-05T20:45:52.357Z,9.90
2022-10-05T20:48:21.364Z,13.40
2022-10-05T20:50:49.040Z,12.25
2022-10-05T20:53:16.690Z,12.77
2022-10-05T20:55:44.377Z,16.10
2022-10-05T20:58:12.195Z,14.68
2022-10-05T21:01:02.996Z,9.50
2022-10-05T21:03:32.105Z,10.65
2022-10-05T21:05:59.827Z,14.13
2022-10-05T21:08:27.806Z,11.25
2022-10-05T21:10:55.910Z,8.00
2022-10-05T21:13:25.392Z,8.85
2022-10-05T21:15:53.679Z,10.02
2022-10-05T21:18:21.374Z,9.30
2022-10-05T21:20:50.516Z,7.40
2022-10-05T21:23:18.240Z,6.85
2022-10-05T21:25:45.961Z,3.90
2022-10-05T21:28:13.786Z,3.83
2022-10-05T21:30:41.464Z,3.03
2022-10-05T21:33:09.136Z,4.22
2022-10-05T21:35:36.753Z,3.30
2022-10-05T21:38:05.788Z,2.72
2022-10-05T21:40:33.466Z,3.08
2022-10-05T21:43:01.155Z,2.33
2022-10-05T21:45:29.749Z,2.88
2022-10-05T21:47:58.476Z,3.53
2022-10-05T21:50:26.828Z,3.13
2022-10-05T21:52:55.214Z,3.60
2022-10-05T21:55:24.311Z,6.43
2022-10-05T21:57:52.277Z,6.32
2022-10-05T22:00:20.530Z,5.75
2022-10-05T22:02:48.221Z,3.90
2022-10-05T22:05:16.717Z,5.95
2022-10-05T22:07:44.636Z,5.18
2022-10-05T22:10:12.314Z,2.72
2022-10-05T22:12:41.471Z,4.90
2022-10-05T22:15:10.439Z,5.85
2022-10-05T22:17:38.845Z,4.80
2022-10-05T22:20:07.591Z,5.70
2022-10-05T22:22:37.975Z,4.63
2022-10-05T22:25:06.672Z,3.92
2022-10-05T22:27:35.213Z,3.67
2022-10-05T22:30:05.709Z,3.30
2022-10-05T22:32:33.401Z,6.75
2022-10-05T22:35:01.145Z,3.83
2022-10-05T22:37:28.861Z,3.58
2022-10-05T22:39:56.597Z,5.50
2022-10-05T22:42:24.319Z,9.35
2022-10-05T22:44:52.001Z,6.07
2022-10-05T22:47:21.014Z,7.90
2022-10-05T22:49:48.696Z,10.65
2022-10-05T22:52:16.468Z,6.30
2022-10-05T22:54:44.103Z,7.00
2022-10-05T22:57:11.821Z,7.72
2022-10-05T22:59:39.457Z,7.80
2022-10-05T23:02:07.154Z,9.60
2022-10-05T23:04:36.238Z,7.38
2022-10-05T23:07:04.418Z,6.95
2022-10-05T23:09:32.101Z,8.10
2022-10-05T23:11:59.771Z,11.25
2022-10-05T23:14:29.239Z,8.93
2022-10-05T23:16:56.980Z,5.38
2022-10-05T23:19:24.789Z,8.13
2022-10-05T23:21:55.455Z,4.93
2022-10-05T23:24:23.132Z,8.23
2022-10-05T23:26:50.820Z,6.10
2022-10-05T23:29:18.531Z,5.90
2022-10-05T23:31:46.191Z,4.80
2022-10-05T23:34:13.875Z,6.93
2022-10-05T23:36:41.518Z,5.82
2022-10-05T23:39:10.544Z,5.15
2022-10-05T23:41:38.219Z,5.75
2022-10-05T23:44:05.933Z,6.70
2022-10-05T23:46:33.607Z,7.07
2022-10-05T23:49:01.300Z,8.50
2022-10-05T23:51:28.947Z,5.32
2022-10-05T23:53:56.602Z,5.65
2022-10-05T23:56:25.772Z,7.00
2022-10-05T23:58:56.644Z,5.95
